sensor_id;sensor_type;location;lat;lon;timestamp;temperature;humidity
67027;DHT22;53933;52.142;11.738;2022-09-14T00:01:08;26.20;58.60
67027;DHT22;53933;52.142;11.738;2022-09-14T00:03:35;26.20;59.30
67027;DHT22;53933;52.142;11.738;2022-09-14T00:06:05;26.20;58.50
67027;DHT22;53933;52.142;11.738;2022-09-14T00:08:32;26.20;58.60
67027;DHT22;53933;52.142;11.738;2022-09-14T00:11:03;26.20;58.60
67027;DHT22;53933;52.142;11.738;2022-09-14T00:13:30;26.20;58.60
67027;DHT22;53933;52.142;11.738;2022-09-14T00:16:02;26.20;58.50
67027;DHT22;53933;52.142;11.738;2022-09-14T00:18:29;26.20;58.60
67027;DHT22;53933;52.142;11.738;2022-09-14T00:20:58;26.20;59.20
67027;DHT22;53933;52.142;11.738;2022-09-14T00:23:26;26.20;58.50
67027;DHT22;53933;52.142;11.738;2022-09-14T00:25:53;26.20;58.50
67027;DHT22;53933;52.142;11.738;2022-09-14T00:28:20;26.10;58.40
67027;DHT22;53933;52.142;11.738;2022-09-14T00:30:46;26.20;58.50
67027;DHT22;53933;52.142;11.738;2022-09-14T00:33:13;26.10;58.40
67027;DHT22;53933;52.142;11.738;2022-09-14T00:35:39;26.20;58.50
67027;DHT22;53933;52.142;11.738;2022-09-14T00:38:06;26.10;58.40
67027;DHT22;53933;52.142;11.738;2022-09-14T00:40:35;26.10;58.30
67027;DHT22;53933;52.142;11.738;2022-09-14T00:43:10;26.10;58.40
67027;DHT22;53933;52.142;11.738;2022-09-14T00:45:38;26.10;58.40
67027;DHT22;53933;52.142;11.738;2022-09-14T00:48:04;26.10;58.40
67027;DHT22;53933;52.142;11.738;2022-09-14T00:50:31;26.10;58.40
67027;DHT22;53933;52.142;11.738;2022-09-14T00:52:58;26.10;58.40
67027;DHT22;53933;52.142;11.738;2022-09-14T00:55:25;26.10;58.40
67027;DHT22;53933;52.142;11.738;2022-09-14T00:57:53;26.10;58.40
67027;DHT22;53933;52.142;11.738;2022-09-14T01:00:22;26.10;58.40
67027;DHT22;53933;52.142;11.738;2022-09-14T01:02:49;26.10;58.50
67027;DHT22;53933;52.142;11.738;2022-09-14T01:05:16;26.10;58.40
67027;DHT22;53933;52.142;11.738;2022-09-14T01:08:08;26.10;58.40
67027;DHT22;53933;52.142;11.738;2022-09-14T01:10:53;26.10;58.40
67027;DHT22;53933;52.142;11.738;2022-09-14T01:13:32;26.10;58.40
67027;DHT22;53933;52.142;11.738;2022-09-14T01:16:06;26.10;58.40
67027;DHT22;53933;52.142;11.738;2022-09-14T01:18:38;26.10;58.40
67027;DHT22;53933;52.142;11.738;2022-09-14T01:21:09;26.10;58.40
67027;DHT22;53933;52.142;11.738;2022-09-14T01:23:43;26.10;58.40
67027;DHT22;53933;52.142;11.738;2022-09-14T01:26:38;26.10;58.40
67027;DHT22;53933;52.142;11.738;2022-09-14T01:29:12;26.10;58.40
67027;DHT22;53933;52.142;11.738;2022-09-14T01:31:47;26.10;58.40
67027;DHT22;53933;52.142;11.738;2022-09-14T01:34:23;26.10;58.50
67027;DHT22;53933;52.142;11.738;2022-09-14T01:36:56;26.10;58.60
67027;DHT22;53933;52.142;11.738;2022-09-14T01:39:26;26.10;58.70
67027;DHT22;53933;52.142;11.738;2022-09-14T01:41:55;26.10;58.70
67027;DHT22;53933;52.142;11.738;2022-09-14T01:44:26;26.10;58.70
67027;DHT22;53933;52.142;11.738;2022-09-14T01:46:58;26.10;58.80
67027;DHT22;53933;52.142;11.738;2022-09-14T01:49:29;26.10;59.00
67027;DHT22;53933;52.142;11.738;2022-09-14T01:52:00;26.10;58.80
67027;DHT22;53933;52.142;11.738;2022-09-14T01:54:32;26.10;59.40
67027;DHT22;53933;52.142;11.738;2022-09-14T01:57:03;26.10;58.60
67027;DHT22;53933;52.142;11.738;2022-09-14T01:59:36;26.10;58.80
67027;DHT22;53933;52.142;11.738;2022-09-14T02:02:08;26.10;58.80
67027;DHT22;53933;52.142;11.738;2022-09-14T02:04:40;26.10;58.70
67027;DHT22;53933;52.142;11.738;2022-09-14T02:07:08;26.10;58.70
67027;DHT22;53933;52.142;11.738;2022-09-14T02:09:35;26.10;58.50
67027;DHT22;53933;52.142;11.738;2022-09-14T02:12:03;26.10;58.70
67027;DHT22;53933;52.142;11.738;2022-09-14T02:14:30;26.10;58.70
67027;DHT22;53933;52.142;11.738;2022-09-14T02:16:58;26.10;58.80
67027;DHT22;53933;52.142;11.738;2022-09-14T02:19:27;26.10;58.60
67027;DHT22;53933;52.142;11.738;2022-09-14T02:21:54;26.10;58.70
67027;DHT22;53933;52.142;11.738;2022-09-14T02:24:21;26.00;58.60
67027;DHT22;53933;52.142;11.738;2022-09-14T02:26:50;26.10;58.60
67027;DHT22;53933;52.142;11.738;2022-09-14T02:29:18;26.10;58.70
67027;DHT22;53933;52.142;11.738;2022-09-14T02:32:06;26.10;58.60
67027;DHT22;53933;52.142;11.738;2022-09-14T02:34:40;26.10;58.70
67027;DHT22;53933;52.142;11.738;2022-09-14T02:37:12;26.10;58.80
67027;DHT22;53933;52.142;11.738;2022-09-14T02:39:46;26.00;58.80
67027;DHT22;53933;52.142;11.738;2022-09-14T02:42:24;26.00;58.70
67027;DHT22;53933;52.142;11.738;2022-09-14T02:45:02;26.00;58.80
67027;DHT22;53933;52.142;11.738;2022-09-14T02:47:37;26.00;58.70
67027;DHT22;53933;52.142;11.738;2022-09-14T02:50:14;26.00;58.80
67027;DHT22;53933;52.142;11.738;2022-09-14T02:52:47;26.00;58.70
67027;DHT22;53933;52.142;11.738;2022-09-14T02:55:18;26.00;58.80
67027;DHT22;53933;52.142;11.738;2022-09-14T02:58:01;26.00;58.80
67027;DHT22;53933;52.142;11.738;2022-09-14T03:00:29;26.00;58.80
67027;DHT22;53933;52.142;11.738;2022-09-14T03:02:58;26.00;58.60
67027;DHT22;53933;52.142;11.738;2022-09-14T03:05:24;26.00;58.70
67027;DHT22;53933;52.142;11.738;2022-09-14T03:07:51;26.00;58.70
67027;DHT22;53933;52.142;11.738;2022-09-14T03:10:18;26.00;58.60
67027;DHT22;53933;52.142;11.738;2022-09-14T03:12:44;26.00;58.70
67027;DHT22;53933;52.142;11.738;2022-09-14T03:15:11;26.00;58.60
67027;DHT22;53933;52.142;11.738;2022-09-14T03:17:37;26.00;58.60
67027;DHT22;53933;52.142;11.738;2022-09-14T03:20:06;26.00;58.60
67027;DHT22;53933;52.142;11.738;2022-09-14T03:22:33;26.00;58.60
67027;DHT22;53933;52.142;11.738;2022-09-14T03:25:01;26.00;58.60
67027;DHT22;53933;52.142;11.738;2022-09-14T03:27:28;26.00;58.60
67027;DHT22;53933;52.142;11.738;2022-09-14T03:29:54;26.00;58.50
67027;DHT22;53933;52.142;11.738;2022-09-14T03:32:21;26.00;58.70
67027;DHT22;53933;52.142;11.738;2022-09-14T03:34:47;26.00;58.60
67027;DHT22;53933;52.142;11.738;2022-09-14T03:37:15;26.00;58.60
67027;DHT22;53933;52.142;11.738;2022-09-14T03:39:42;26.00;58.60
67027;DHT22;53933;52.142;11.738;2022-09-14T03:42:09;26.00;58.70
67027;DHT22;53933;52.142;11.738;2022-09-14T03:44:36;26.00;58.60
67027;DHT22;53933;52.142;11.738;2022-09-14T03:47:03;26.00;58.50
67027;DHT22;53933;52.142;11.738;2022-09-14T03:49:29;26.00;58.50
67027;DHT22;53933;52.142;11.738;2022-09-14T03:51:56;26.00;58.60
67027;DHT22;53933;52.142;11.738;2022-09-14T03:54:24;26.00;58.50
67027;DHT22;53933;52.142;11.738;2022-09-14T03:56:51;26.00;58.50
67027;DHT22;53933;52.142;11.738;2022-09-14T03:59:18;26.00;58.60
67027;DHT22;53933;52.142;11.738;2022-09-14T04:01:45;26.00;58.60
67027;DHT22;53933;52.142;11.738;2022-09-14T04:04:12;25.90;58.50
67027;DHT22;53933;52.142;11.738;2022-09-14T04:06:39;26.00;58.60
67027;DHT22;53933;52.142;11.738;2022-09-14T04:09:05;26.00;58.60
67027;DHT22;53933;52.142;11.738;2022-09-14T04:11:33;26.00;58.60
67027;DHT22;53933;52.142;11.738;2022-09-14T04:14:00;26.00;58.60
67027;DHT22;53933;52.142;11.738;2022-09-14T04:16:28;26.00;58.60
67027;DHT22;53933;52.142;11.738;2022-09-14T04:18:55;25.90;58.60
67027;DHT22;53933;52.142;11.738;2022-09-14T04:21:23;25.90;58.60
67027;DHT22;53933;52.142;11.738;2022-09-14T04:23:52;25.90;58.70
67027;DHT22;53933;52.142;11.738;2022-09-14T04:26:20;25.90;58.60
67027;DHT22;53933;52.142;11.738;2022-09-14T04:28:48;25.90;58.60
67027;DHT22;53933;52.142;11.738;2022-09-14T04:31:15;25.90;58.60
67027;DHT22;53933;52.142;11.738;2022-09-14T04:33:42;25.90;58.60
67027;DHT22;53933;52.142;11.738;2022-09-14T04:36:10;25.90;58.70
67027;DHT22;53933;52.142;11.738;2022-09-14T04:38:38;25.90;58.80
67027;DHT22;53933;52.142;11.738;2022-09-14T04:41:08;25.90;58.80
67027;DHT22;53933;52.142;11.738;2022-09-14T04:43:36;25.90;58.80
67027;DHT22;53933;52.142;11.738;2022-09-14T04:46:05;25.90;59.00
67027;DHT22;53933;52.142;11.738;2022-09-14T04:48:33;25.90;58.90
67027;DHT22;53933;52.142;11.738;2022-09-14T04:51:01;25.90;58.80
67027;DHT22;53933;52.142;11.738;2022-09-14T04:53:28;25.90;58.90
67027;DHT22;53933;52.142;11.738;2022-09-14T04:55:58;25.90;59.00
67027;DHT22;53933;52.142;11.738;2022-09-14T04:58:25;25.90;58.90
67027;DHT22;53933;52.142;11.738;2022-09-14T05:00:53;25.90;59.00
67027;DHT22;53933;52.142;11.738;2022-09-14T05:03:22;25.90;58.90
67027;DHT22;53933;52.142;11.738;2022-09-14T05:05:48;25.90;59.10
67027;DHT22;53933;52.142;11.738;2022-09-14T05:08:15;25.90;59.00
67027;DHT22;53933;52.142;11.738;2022-09-14T05:10:42;25.90;58.80
67027;DHT22;53933;52.142;11.738;2022-09-14T05:13:08;25.90;58.90
67027;DHT22;53933;52.142;11.738;2022-09-14T05:15:35;25.90;59.00
67027;DHT22;53933;52.142;11.738;2022-09-14T05:18:02;25.90;59.00
67027;DHT22;53933;52.142;11.738;2022-09-14T05:20:30;25.90;59.00
67027;DHT22;53933;52.142;11.738;2022-09-14T05:22:56;25.90;59.10
67027;DHT22;53933;52.142;11.738;2022-09-14T05:25:23;25.90;59.10
67027;DHT22;53933;52.142;11.738;2022-09-14T05:27:50;25.90;59.00
67027;DHT22;53933;52.142;11.738;2022-09-14T05:30:16;25.90;59.00
67027;DHT22;53933;52.142;11.738;2022-09-14T05:32:43;25.90;59.10
67027;DHT22;53933;52.142;11.738;2022-09-14T05:35:10;25.90;59.00
67027;DHT22;53933;52.142;11.738;2022-09-14T05:37:37;25.90;59.00
67027;DHT22;53933;52.142;11.738;2022-09-14T05:40:05;25.90;59.00
67027;DHT22;53933;52.142;11.738;2022-09-14T05:42:33;25.90;59.10
67027;DHT22;53933;52.142;11.738;2022-09-14T05:44:59;25.90;59.10
67027;DHT22;53933;52.142;11.738;2022-09-14T05:47:28;25.90;59.10
67027;DHT22;53933;52.142;11.738;2022-09-14T05:49:54;25.90;59.10
67027;DHT22;53933;52.142;11.738;2022-09-14T05:52:21;25.90;59.10
67027;DHT22;53933;52.142;11.738;2022-09-14T05:54:49;25.90;59.00
67027;DHT22;53933;52.142;11.738;2022-09-14T05:57:16;25.90;59.10
67027;DHT22;53933;52.142;11.738;2022-09-14T05:59:43;25.90;59.00
67027;DHT22;53933;52.142;11.738;2022-09-14T06:02:09;25.90;59.00
67027;DHT22;53933;52.142;11.738;2022-09-14T06:04:36;25.90;59.00
67027;DHT22;53933;52.142;11.738;2022-09-14T06:07:03;25.90;59.00
67027;DHT22;53933;52.142;11.738;2022-09-14T06:09:29;25.90;59.00
67027;DHT22;53933;52.142;11.738;2022-09-14T06:11:57;26.00;59.10
67027;DHT22;53933;52.142;11.738;2022-09-14T06:14:24;26.00;59.10
67027;DHT22;53933;52.142;11.738;2022-09-14T06:16:50;26.00;59.00
67027;DHT22;53933;52.142;11.738;2022-09-14T06:19:17;26.00;59.00
67027;DHT22;53933;52.142;11.738;2022-09-14T06:21:44;26.00;58.90
67027;DHT22;53933;52.142;11.738;2022-09-14T06:24:10;26.00;58.90
67027;DHT22;53933;52.142;11.738;2022-09-14T06:26:37;26.00;58.90
67027;DHT22;53933;52.142;11.738;2022-09-14T06:29:05;26.00;58.80
67027;DHT22;53933;52.142;11.738;2022-09-14T06:31:32;26.00;58.80
67027;DHT22;53933;52.142;11.738;2022-09-14T06:34:00;26.10;58.80
67027;DHT22;53933;52.142;11.738;2022-09-14T06:36:28;26.10;58.70
67027;DHT22;53933;52.142;11.738;2022-09-14T06:38:55;26.10;58.80
67027;DHT22;53933;52.142;11.738;2022-09-14T06:41:23;26.10;58.80
67027;DHT22;53933;52.142;11.738;2022-09-14T06:43:55;26.10;58.80
67027;DHT22;53933;52.142;11.738;2022-09-14T06:46:25;26.10;59.40
67027;DHT22;53933;52.142;11.738;2022-09-14T06:48:54;26.10;58.70
67027;DHT22;53933;52.142;11.738;2022-09-14T06:51:24;26.10;58.70
67027;DHT22;53933;52.142;11.738;2022-09-14T06:53:52;26.10;58.60
67027;DHT22;53933;52.142;11.738;2022-09-14T06:56:19;26.10;58.60
67027;DHT22;53933;52.142;11.738;2022-09-14T06:58:46;26.20;58.60
67027;DHT22;53933;52.142;11.738;2022-09-14T07:01:15;26.20;58.60
67027;DHT22;53933;52.142;11.738;2022-09-14T07:03:46;26.10;58.60
67027;DHT22;53933;52.142;11.738;2022-09-14T07:06:14;26.20;58.60
67027;DHT22;53933;52.142;11.738;2022-09-14T07:08:42;26.20;58.70
67027;DHT22;53933;52.142;11.738;2022-09-14T07:11:10;26.20;58.70
67027;DHT22;53933;52.142;11.738;2022-09-14T07:13:37;26.20;58.70
67027;DHT22;53933;52.142;11.738;2022-09-14T07:16:05;26.20;58.70
67027;DHT22;53933;52.142;11.738;2022-09-14T07:18:32;26.20;58.70
67027;DHT22;53933;52.142;11.738;2022-09-14T07:21:02;26.20;58.70
67027;DHT22;53933;52.142;11.738;2022-09-14T07:23:29;26.20;58.70
67027;DHT22;53933;52.142;11.738;2022-09-14T07:26:00;26.20;58.70
67027;DHT22;53933;52.142;11.738;2022-09-14T07:28:27;26.20;58.70
67027;DHT22;53933;52.142;11.738;2022-09-14T07:30:53;26.20;58.70
67027;DHT22;53933;52.142;11.738;2022-09-14T07:33:20;26.20;58.60
67027;DHT22;53933;52.142;11.738;2022-09-14T07:35:47;26.30;58.60
67027;DHT22;53933;52.142;11.738;2022-09-14T07:38:15;26.30;58.60
67027;DHT22;53933;52.142;11.738;2022-09-14T07:40:41;26.30;58.50
67027;DHT22;53933;52.142;11.738;2022-09-14T07:43:08;26.30;58.50
67027;DHT22;53933;52.142;11.738;2022-09-14T07:45:35;26.30;58.40
67027;DHT22;53933;52.142;11.738;2022-09-14T07:48:02;26.30;58.40
67027;DHT22;53933;52.142;11.738;2022-09-14T07:50:28;26.30;58.30
67027;DHT22;53933;52.142;11.738;2022-09-14T07:52:55;26.40;58.30
67027;DHT22;53933;52.142;11.738;2022-09-14T07:55:23;26.30;58.30
67027;DHT22;53933;52.142;11.738;2022-09-14T07:57:50;26.40;58.20
67027;DHT22;53933;52.142;11.738;2022-09-14T08:00:16;26.40;58.20
67027;DHT22;53933;52.142;11.738;2022-09-14T08:02:43;26.50;58.00
67027;DHT22;53933;52.142;11.738;2022-09-14T08:05:10;26.50;57.90
67027;DHT22;53933;52.142;11.738;2022-09-14T08:07:37;26.50;57.90
67027;DHT22;53933;52.142;11.738;2022-09-14T08:10:04;26.60;57.90
67027;DHT22;53933;52.142;11.738;2022-09-14T08:12:32;26.50;57.90
67027;DHT22;53933;52.142;11.738;2022-09-14T08:14:58;26.50;57.90
67027;DHT22;53933;52.142;11.738;2022-09-14T08:17:25;26.50;57.90
67027;DHT22;53933;52.142;11.738;2022-09-14T08:19:52;26.50;57.90
67027;DHT22;53933;52.142;11.738;2022-09-14T08:22:20;26.50;57.90
67027;DHT22;53933;52.142;11.738;2022-09-14T08:24:46;26.50;57.90
67027;DHT22;53933;52.142;11.738;2022-09-14T08:27:13;26.50;57.90
67027;DHT22;53933;52.142;11.738;2022-09-14T08:29:41;26.50;57.90
67027;DHT22;53933;52.142;11.738;2022-09-14T08:32:10;26.50;57.90
67027;DHT22;53933;52.142;11.738;2022-09-14T08:34:36;26.50;57.90
67027;DHT22;53933;52.142;11.738;2022-09-14T08:37:03;26.50;57.90
67027;DHT22;53933;52.142;11.738;2022-09-14T08:39:30;26.50;57.90
67027;DHT22;53933;52.142;11.738;2022-09-14T08:41:57;26.50;57.90
67027;DHT22;53933;52.142;11.738;2022-09-14T08:44:27;26.50;57.90
67027;DHT22;53933;52.142;11.738;2022-09-14T08:47:01;26.50;57.90
67027;DHT22;53933;52.142;11.738;2022-09-14T08:49:41;26.50;57.90
67027;DHT22;53933;52.142;11.738;2022-09-14T08:52:12;26.60;57.90
67027;DHT22;53933;52.142;11.738;2022-09-14T08:54:40;26.60;57.90
67027;DHT22;53933;52.142;11.738;2022-09-14T08:57:17;26.50;57.70
67027;DHT22;53933;52.142;11.738;2022-09-14T08:59:51;26.60;57.80
67027;DHT22;53933;52.142;11.738;2022-09-14T09:02:37;26.60;57.70
67027;DHT22;53933;52.142;11.738;2022-09-14T09:05:22;26.60;57.70
67027;DHT22;53933;52.142;11.738;2022-09-14T09:07:57;26.60;57.70
67027;DHT22;53933;52.142;11.738;2022-09-14T09:10:25;26.60;57.70
67027;DHT22;53933;52.142;11.738;2022-09-14T09:12:54;26.60;57.70
67027;DHT22;53933;52.142;11.738;2022-09-14T09:15:24;26.60;57.70
67027;DHT22;53933;52.142;11.738;2022-09-14T09:17:54;26.60;57.70
67027;DHT22;53933;52.142;11.738;2022-09-14T09:20:26;26.60;57.70
67027;DHT22;53933;52.142;11.738;2022-09-14T09:23:03;26.60;57.70
67027;DHT22;53933;52.142;11.738;2022-09-14T09:25:44;26.60;57.70
67027;DHT22;53933;52.142;11.738;2022-09-14T09:28:14;26.60;57.70
67027;DHT22;53933;52.142;11.738;2022-09-14T09:30:41;26.60;57.70
67027;DHT22;53933;52.142;11.738;2022-09-14T09:33:14;26.60;57.60
67027;DHT22;53933;52.142;11.738;2022-09-14T09:35:41;26.60;57.60
67027;DHT22;53933;52.142;11.738;2022-09-14T09:38:12;26.70;57.60
67027;DHT22;53933;52.142;11.738;2022-09-14T09:40:42;26.60;57.50
67027;DHT22;53933;52.142;11.738;2022-09-14T09:43:12;26.70;57.50
67027;DHT22;53933;52.142;11.738;2022-09-14T09:45:47;26.70;57.40
67027;DHT22;53933;52.142;11.738;2022-09-14T09:48:18;26.70;57.40
67027;DHT22;53933;52.142;11.738;2022-09-14T09:50:50;26.80;57.30
67027;DHT22;53933;52.142;11.738;2022-09-14T09:53:20;26.80;57.20
67027;DHT22;53933;52.142;11.738;2022-09-14T09:55:48;26.80;57.20
67027;DHT22;53933;52.142;11.738;2022-09-14T09:58:22;26.80;57.10
67027;DHT22;53933;52.142;11.738;2022-09-14T10:00:57;26.80;57.10
67027;DHT22;53933;52.142;11.738;2022-09-14T10:03:31;26.90;57.10
67027;DHT22;53933;52.142;11.738;2022-09-14T10:06:00;26.90;57.10
67027;DHT22;53933;52.142;11.738;2022-09-14T10:08:27;27.00;57.00
67027;DHT22;53933;52.142;11.738;2022-09-14T10:11:00;27.20;56.60
67027;DHT22;53933;52.142;11.738;2022-09-14T10:13:29;27.40;56.10
67027;DHT22;53933;52.142;11.738;2022-09-14T10:16:05;27.60;55.70
67027;DHT22;53933;52.142;11.738;2022-09-14T10:18:33;27.70;55.40
67027;DHT22;53933;52.142;11.738;2022-09-14T10:21:06;27.80;55.20
67027;DHT22;53933;52.142;11.738;2022-09-14T10:23:34;27.90;55.00
67027;DHT22;53933;52.142;11.738;2022-09-14T10:26:22;27.90;55.50
67027;DHT22;53933;52.142;11.738;2022-09-14T10:28:50;28.00;54.70
67027;DHT22;53933;52.142;11.738;2022-09-14T10:31:22;27.90;54.80
67027;DHT22;53933;52.142;11.738;2022-09-14T10:33:53;27.90;54.90
67027;DHT22;53933;52.142;11.738;2022-09-14T10:36:24;27.90;55.50
67027;DHT22;53933;52.142;11.738;2022-09-14T10:38:53;27.80;54.90
67027;DHT22;53933;52.142;11.738;2022-09-14T10:41:25;27.80;55.00
67027;DHT22;53933;52.142;11.738;2022-09-14T10:44:17;27.80;55.10
67027;DHT22;53933;52.142;11.738;2022-09-14T10:47:02;27.80;55.20
67027;DHT22;53933;52.142;11.738;2022-09-14T10:49:47;27.80;55.20
67027;DHT22;53933;52.142;11.738;2022-09-14T10:52:22;27.80;55.10
67027;DHT22;53933;52.142;11.738;2022-09-14T10:55:19;27.90;55.00
67027;DHT22;53933;52.142;11.738;2022-09-14T10:57:54;27.90;54.80
67027;DHT22;53933;52.142;11.738;2022-09-14T11:00:22;27.90;54.90
67027;DHT22;53933;52.142;11.738;2022-09-14T11:03:10;27.90;54.90
67027;DHT22;53933;52.142;11.738;2022-09-14T11:05:45;27.90;55.00
67027;DHT22;53933;52.142;11.738;2022-09-14T11:08:20;27.80;55.00
67027;DHT22;53933;52.142;11.738;2022-09-14T11:11:01;27.80;55.20
67027;DHT22;53933;52.142;11.738;2022-09-14T11:13:51;27.80;55.90
67027;DHT22;53933;52.142;11.738;2022-09-14T11:16:36;27.70;56.40
67027;DHT22;53933;52.142;11.738;2022-09-14T11:19:15;27.70;56.60
67027;DHT22;53933;52.142;11.738;2022-09-14T11:21:54;27.60;56.20
67027;DHT22;53933;52.142;11.738;2022-09-14T11:24:24;27.50;55.80
67027;DHT22;53933;52.142;11.738;2022-09-14T11:26:58;27.50;55.90
67027;DHT22;53933;52.142;11.738;2022-09-14T11:29:30;27.50;55.90
67027;DHT22;53933;52.142;11.738;2022-09-14T11:32:02;27.50;55.90
67027;DHT22;53933;52.142;11.738;2022-09-14T11:34:33;27.40;55.90
67027;DHT22;53933;52.142;11.738;2022-09-14T11:37:04;27.40;56.00
67027;DHT22;53933;52.142;11.738;2022-09-14T11:39:34;27.40;56.10
67027;DHT22;53933;52.142;11.738;2022-09-14T11:42:04;27.30;55.90
67027;DHT22;53933;52.142;11.738;2022-09-14T11:44:35;27.30;56.10
67027;DHT22;53933;52.142;11.738;2022-09-14T11:47:05;27.30;56.20
67027;DHT22;53933;52.142;11.738;2022-09-14T11:49:39;27.30;56.20
67027;DHT22;53933;52.142;11.738;2022-09-14T11:52:17;27.20;56.20
67027;DHT22;53933;52.142;11.738;2022-09-14T11:54:46;27.30;56.20
67027;DHT22;53933;52.142;11.738;2022-09-14T11:57:16;27.20;56.10
67027;DHT22;53933;52.142;11.738;2022-09-14T11:59:51;27.20;56.10
67027;DHT22;53933;52.142;11.738;2022-09-14T12:03:11;27.20;56.10
67027;DHT22;53933;52.142;11.738;2022-09-14T12:05:38;27.20;56.10
67027;DHT22;53933;52.142;11.738;2022-09-14T12:08:37;27.20;56.10
67027;DHT22;53933;52.142;11.738;2022-09-14T12:11:23;27.20;56.00
67027;DHT22;53933;52.142;11.738;2022-09-14T12:16:32;27.20;56.00
67027;DHT22;53933;52.142;11.738;2022-09-14T12:18:59;27.20;56.10
67027;DHT22;53933;52.142;11.738;2022-09-14T12:21:26;27.20;56.10
67027;DHT22;53933;52.142;11.738;2022-09-14T12:23:54;27.10;56.00
67027;DHT22;53933;52.142;11.738;2022-09-14T12:26:31;27.10;56.10
67027;DHT22;53933;52.142;11.738;2022-09-14T12:29:28;27.10;56.10
67027;DHT22;53933;52.142;11.738;2022-09-14T12:32:26;27.10;56.10
67027;DHT22;53933;52.142;11.738;2022-09-14T12:37:56;27.10;56.10
67027;DHT22;53933;52.142;11.738;2022-09-14T12:40:36;27.10;56.10
67027;DHT22;53933;52.142;11.738;2022-09-14T12:46:34;27.10;56.10
67027;DHT22;53933;52.142;11.738;2022-09-14T12:49:13;27.10;56.10
67027;DHT22;53933;52.142;11.738;2022-09-14T12:51:45;27.00;56.00
67027;DHT22;53933;52.142;11.738;2022-09-14T12:54:21;27.00;56.10
67027;DHT22;53933;52.142;11.738;2022-09-14T12:56:52;27.10;56.20
67027;DHT22;53933;52.142;11.738;2022-09-14T12:59:26;27.00;56.10
67027;DHT22;53933;52.142;11.738;2022-09-14T13:02:01;27.00;56.20
67027;DHT22;53933;52.142;11.738;2022-09-14T13:04:36;27.00;56.20
67027;DHT22;53933;52.142;11.738;2022-09-14T13:07:05;27.00;56.20
67027;DHT22;53933;52.142;11.738;2022-09-14T13:09:33;27.00;56.20
67027;DHT22;53933;52.142;11.738;2022-09-14T13:12:03;27.00;56.20
67027;DHT22;53933;52.142;11.738;2022-09-14T13:14:33;27.00;56.20
67027;DHT22;53933;52.142;11.738;2022-09-14T13:17:01;27.00;56.20
67027;DHT22;53933;52.142;11.738;2022-09-14T13:19:30;27.00;56.20
67027;DHT22;53933;52.142;11.738;2022-09-14T13:21:58;27.00;56.20
67027;DHT22;53933;52.142;11.738;2022-09-14T13:24:30;27.00;56.20
67027;DHT22;53933;52.142;11.738;2022-09-14T13:27:01;27.00;56.20
67027;DHT22;53933;52.142;11.738;2022-09-14T13:29:29;26.90;56.20
67027;DHT22;53933;52.142;11.738;2022-09-14T13:31:57;27.00;56.20
67027;DHT22;53933;52.142;11.738;2022-09-14T13:34:26;26.90;56.20
67027;DHT22;53933;52.142;11.738;2022-09-14T13:36:54;26.90;56.20
67027;DHT22;53933;52.142;11.738;2022-09-14T13:39:26;26.90;56.20
67027;DHT22;53933;52.142;11.738;2022-09-14T13:41:54;26.90;56.20
67027;DHT22;53933;52.142;11.738;2022-09-14T13:44:33;26.90;56.30
67027;DHT22;53933;52.142;11.738;2022-09-14T13:47:03;26.90;56.20
67027;DHT22;53933;52.142;11.738;2022-09-14T13:49:30;26.90;56.20
67027;DHT22;53933;52.142;11.738;2022-09-14T13:52:16;26.90;56.30
67027;DHT22;53933;52.142;11.738;2022-09-14T13:54:43;26.90;56.30
67027;DHT22;53933;52.142;11.738;2022-09-14T13:57:10;26.80;56.20
67027;DHT22;53933;52.142;11.738;2022-09-14T14:00:04;26.90;56.30
67027;DHT22;53933;52.142;11.738;2022-09-14T14:02:34;26.80;56.30
67027;DHT22;53933;52.142;11.738;2022-09-14T14:05:01;26.90;56.30
67027;DHT22;53933;52.142;11.738;2022-09-14T14:07:30;26.90;56.40
67027;DHT22;53933;52.142;11.738;2022-09-14T14:09:59;26.80;56.30
67027;DHT22;53933;52.142;11.738;2022-09-14T14:12:28;26.80;56.40
67027;DHT22;53933;52.142;11.738;2022-09-14T14:14:56;26.80;56.40
67027;DHT22;53933;52.142;11.738;2022-09-14T14:17:31;26.80;56.30
67027;DHT22;53933;52.142;11.738;2022-09-14T14:20:30;26.80;56.40
67027;DHT22;53933;52.142;11.738;2022-09-14T14:23:00;26.80;56.40
67027;DHT22;53933;52.142;11.738;2022-09-14T14:25:30;26.70;56.30
67027;DHT22;53933;52.142;11.738;2022-09-14T14:27:59;26.70;56.40
67027;DHT22;53933;52.142;11.738;2022-09-14T14:30:26;26.70;56.50
67027;DHT22;53933;52.142;11.738;2022-09-14T14:32:57;26.70;56.60
67027;DHT22;53933;52.142;11.738;2022-09-14T14:35:30;26.70;56.60
67027;DHT22;53933;52.142;11.738;2022-09-14T14:37:57;26.70;56.60
67027;DHT22;53933;52.142;11.738;2022-09-14T14:40:25;26.70;56.70
67027;DHT22;53933;52.142;11.738;2022-09-14T14:42:53;26.70;56.60
67027;DHT22;53933;52.142;11.738;2022-09-14T14:45:22;26.70;56.70
67027;DHT22;53933;52.142;11.738;2022-09-14T14:47:51;26.70;56.70
67027;DHT22;53933;52.142;11.738;2022-09-14T14:50:21;26.70;56.80
67027;DHT22;53933;52.142;11.738;2022-09-14T14:52:48;26.70;56.80
67027;DHT22;53933;52.142;11.738;2022-09-14T14:55:16;26.70;56.80
67027;DHT22;53933;52.142;11.738;2022-09-14T14:57:43;26.70;56.80
67027;DHT22;53933;52.142;11.738;2022-09-14T15:00:13;26.70;56.80
67027;DHT22;53933;52.142;11.738;2022-09-14T15:02:40;26.70;56.90
67027;DHT22;53933;52.142;11.738;2022-09-14T15:05:08;26.60;56.80
67027;DHT22;53933;52.142;11.738;2022-09-14T15:07:36;26.70;56.90
67027;DHT22;53933;52.142;11.738;2022-09-14T15:10:03;26.60;56.90
67027;DHT22;53933;52.142;11.738;2022-09-14T15:12:30;26.70;57.10
67027;DHT22;53933;52.142;11.738;2022-09-14T15:14:58;26.60;56.90
67027;DHT22;53933;52.142;11.738;2022-09-14T15:17:25;26.70;56.90
67027;DHT22;53933;52.142;11.738;2022-09-14T15:19:51;26.60;56.90
67027;DHT22;53933;52.142;11.738;2022-09-14T15:22:18;26.60;56.90
67027;DHT22;53933;52.142;11.738;2022-09-14T15:24:46;26.60;57.00
67027;DHT22;53933;52.142;11.738;2022-09-14T15:27:13;26.60;57.00
67027;DHT22;53933;52.142;11.738;2022-09-14T15:29:39;26.60;57.10
67027;DHT22;53933;52.142;11.738;2022-09-14T15:32:06;26.60;57.10
67027;DHT22;53933;52.142;11.738;2022-09-14T15:34:32;26.60;57.10
67027;DHT22;53933;52.142;11.738;2022-09-14T15:36:59;26.60;57.10
67027;DHT22;53933;52.142;11.738;2022-09-14T15:39:27;26.60;57.20
67027;DHT22;53933;52.142;11.738;2022-09-14T15:41:56;26.60;57.20
67027;DHT22;53933;52.142;11.738;2022-09-14T15:44:23;26.60;57.20